Time;durP1;ratioP1;P1;durP2;ratioP2;P2;SDS_P1;SDS_P2;PMS_P1;PMS_P2;Temp;Humidity;BMP_temperature;BMP_pressure;BME280_temperature;BME280_humidity;BME280_pressure;Samples;Min_cycle;Max_cycle;Signal;HPM_P1;HPM_P2
2021/07/29 00:00:40;;;;;;;1.88;1.00;;;;;;;23.15;47.79;100527.50;4949294;29;20027;-69
2021/07/29 00:03:06;;;;;;;3.90;0.90;;;;;;;23.16;47.64;100531.00;4951087;29;20366;-69
2021/07/29 00:05:33;;;;;;;3.05;1.00;;;;;;;23.17;47.77;100535.31;4950850;29;20038;-68
2021/07/29 00:07:59;;;;;;;2.28;0.82;;;;;;;23.15;48.11;100532.84;4936685;28;20119;-68
2021/07/29 00:10:26;;;;;;;1.20;0.85;;;;;;;23.15;47.70;100524.81;4950109;29;20518;-68
2021/07/29 00:12:52;;;;;;;1.88;0.80;;;;;;;23.16;47.86;100529.13;4958956;28;20085;-67
2021/07/29 00:15:18;;;;;;;1.20;0.85;;;;;;;23.16;47.71;100520.28;4950493;29;20052;-68
2021/07/29 00:20:18;;;;;;;2.35;1.00;;;;;;;23.15;47.57;100522.16;4946847;29;20405;-68
2021/07/29 00:22:45;;;;;;;2.60;0.80;;;;;;;23.14;47.81;100520.53;4950441;29;20090;-68
2021/07/29 00:25:14;;;;;;;4.47;0.93;;;;;;;23.14;47.88;100523.19;4950508;29;20027;-70
2021/07/29 00:27:43;;;;;;;2.38;0.88;;;;;;;23.13;47.82;100521.56;4949639;29;20485;-69
2021/07/29 00:30:10;;;;;;;4.03;0.90;;;;;;;23.14;47.82;100536.56;4950166;29;20114;-69
2021/07/29 00:32:36;;;;;;;2.40;0.90;;;;;;;23.13;47.50;100526.91;4940765;29;20081;-73
2021/07/29 00:35:04;;;;;;;2.30;0.80;;;;;;;23.14;47.58;100525.88;4949620;29;20047;-68
2021/07/29 00:37:30;;;;;;;2.03;0.90;;;;;;;23.14;47.89;100525.06;4950488;29;20069;-70
2021/07/29 00:39:55;;;;;;;2.17;0.95;;;;;;;23.14;47.57;100517.03;4949820;29;20335;-68
2021/07/29 00:42:20;;;;;;;3.63;0.80;;;;;;;23.13;47.67;100534.13;4950191;29;20473;-69
2021/07/29 00:44:46;;;;;;;2.10;0.95;;;;;;;23.13;47.71;100531.47;4950388;29;20391;-69
2021/07/29 00:47:11;;;;;;;2.28;1.00;;;;;;;23.12;47.79;100527.16;4950248;29;20042;-68
2021/07/29 00:49:38;;;;;;;1.60;0.70;;;;;;;23.12;47.37;100527.16;4949974;29;20055;-74
2021/07/29 00:52:03;;;;;;;1.58;0.68;;;;;;;23.10;47.40;100522.03;4950919;29;20532;-68
2021/07/29 00:54:29;;;;;;;1.20;0.70;;;;;;;23.10;47.52;100524.69;4931555;29;20043;-68
2021/07/29 00:56:56;;;;;;;2.67;0.70;;;;;;;23.11;47.52;100520.16;4949992;29;20093;-69
2021/07/29 00:59:22;;;;;;;2.10;1.00;;;;;;;23.10;47.75;100519.34;4933360;29;20142;-68
2021/07/29 01:01:47;;;;;;;2.90;0.98;;;;;;;23.09;47.63;100528.44;4948467;29;20110;-68
2021/07/29 01:04:13;;;;;;;2.25;1.00;;;;;;;23.09;47.37;100520.41;4950931;29;20202;-68
2021/07/29 01:06:39;;;;;;;1.83;0.80;;;;;;;23.09;47.82;100520.41;4950063;29;20070;-67
2021/07/29 01:09:10;;;;;;;2.22;0.77;;;;;;;23.08;47.29;100516.09;4950501;29;20496;-67
2021/07/29 01:11:40;;;;;;;1.25;0.77;;;;;;;23.08;47.75;100518.75;4949402;29;20495;-68
2021/07/29 01:14:06;;;;;;;2.20;0.90;;;;;;;23.08;47.77;100520.63;4933937;29;20373;-68
2021/07/29 01:16:32;;;;;;;1.85;0.80;;;;;;;23.08;47.41;100517.94;4949718;29;20094;-68
2021/07/29 01:18:59;;;;;;;2.13;1.00;;;;;;;23.08;47.52;100513.41;4950194;29;20094;-68
2021/07/29 01:21:29;;;;;;;1.20;0.70;;;;;;;23.06;47.75;100518.19;4932620;28;20154;-68
2021/07/29 01:23:55;;;;;;;1.48;0.70;;;;;;;23.06;47.48;100512.84;4949852;29;20042;-71
2021/07/29 01:26:21;;;;;;;2.28;0.85;;;;;;;23.07;47.34;100509.09;4949409;29;20050;-69
2021/07/29 01:28:46;;;;;;;1.88;0.85;;;;;;;23.06;47.58;100507.47;4949979;29;20418;-68
2021/07/29 01:31:12;;;;;;;1.20;0.70;;;;;;;23.06;47.43;100512.84;4949635;29;20118;-68
2021/07/29 01:33:38;;;;;;;1.67;0.85;;;;;;;23.06;47.62;100504.00;4949952;29;20035;-70
2021/07/29 01:36:04;;;;;;;2.05;0.80;;;;;;;23.06;47.32;100507.47;4950282;29;20036;-68
2021/07/29 01:38:30;;;;;;;2.38;0.95;;;;;;;23.05;47.29;100510.38;4949493;29;20415;-68
2021/07/29 01:40:55;;;;;;;2.78;0.90;;;;;;;23.04;47.28;100512.25;4949977;29;20043;-68
2021/07/29 01:43:21;;;;;;;3.50;0.70;;;;;;;23.04;47.50;100509.56;4949729;29;20421;-68
2021/07/29 01:45:47;;;;;;;1.75;0.70;;;;;;;23.04;47.23;100508.72;4949762;29;20055;-68
2021/07/29 01:48:12;;;;;;;1.73;0.70;;;;;;;23.03;47.23;100513.25;4949451;28;20354;-68
2021/07/29 01:50:38;;;;;;;3.03;1.00;;;;;;;23.04;47.11;100511.41;4950386;29;20046;-68
2021/07/29 01:53:03;;;;;;;3.97;1.00;;;;;;;23.00;47.44;100506.50;4947728;28;20039;-68
2021/07/29 01:55:29;;;;;;;1.58;0.80;;;;;;;23.02;47.39;100516.97;4953404;29;20087;-68
2021/07/29 01:57:55;;;;;;;3.10;0.80;;;;;;;23.02;47.12;100522.34;4951529;29;20450;-70
2021/07/29 02:00:22;;;;;;;1.35;0.73;;;;;;;23.00;47.42;100522.56;4949285;29;20485;-68
2021/07/29 02:02:47;;;;;;;1.70;1.00;;;;;;;23.01;47.12;100520.69;4914109;29;20069;-68
2021/07/29 02:05:13;;;;;;;1.63;0.80;;;;;;;22.99;47.04;100515.56;4953321;29;20043;-67
2021/07/29 02:07:38;;;;;;;1.92;0.85;;;;;;;22.99;47.16;100517.44;4935821;29;20472;-71
2021/07/29 02:10:04;;;;;;;2.35;0.85;;;;;;;22.98;47.37;100519.28;4951146;29;20479;-68
2021/07/29 02:12:30;;;;;;;1.80;0.80;;;;;;;22.98;47.49;100519.28;4923566;29;20107;-70
2021/07/29 02:14:56;;;;;;;1.40;0.90;;;;;;;22.98;47.00;100515.81;4947974;29;20050;-68
2021/07/29 02:17:22;;;;;;;2.65;1.17;;;;;;;22.97;47.26;100520.34;4950984;29;20123;-68
2021/07/29 02:19:47;;;;;;;2.88;0.80;;;;;;;22.98;47.08;100529.19;4952434;29;20481;-70
2021/07/29 02:22:13;;;;;;;3.10;0.90;;;;;;;22.98;47.25;100523.84;4952624;29;20055;-68
2021/07/29 02:24:38;;;;;;;2.05;0.90;;;;;;;22.97;47.24;100522.19;4952968;29;20046;-68
2021/07/29 02:27:04;;;;;;;2.03;0.93;;;;;;;22.96;47.24;100518.72;4935172;29;20122;-68
2021/07/29 02:29:29;;;;;;;4.30;1.33;;;;;;;22.96;47.31;100520.56;4934921;29;20070;-71
2021/07/29 02:31:55;;;;;;;1.38;0.82;;;;;;;22.95;46.99;100521.63;4951932;29;20047;-68
2021/07/29 02:34:20;;;;;;;1.85;0.80;;;;;;;22.96;47.05;100523.25;4952863;29;20050;-68
2021/07/29 02:36:46;;;;;;;3.10;0.98;;;;;;;22.94;47.27;100515.44;4950645;28;20050;-68
2021/07/29 02:39:11;;;;;;;2.15;0.93;;;;;;;22.94;47.04;100526.16;4952479;29;20039;-68
2021/07/29 02:41:37;;;;;;;2.05;0.85;;;;;;;22.94;47.05;100511.97;4952934;29;20046;-69
2021/07/29 02:44:03;;;;;;;0.93;0.80;;;;;;;22.93;47.18;100510.31;4951927;29;20046;-68
2021/07/29 02:46:29;;;;;;;2.13;0.85;;;;;;;22.94;47.06;100515.44;4952916;29;20046;-69
2021/07/29 02:48:55;;;;;;;2.15;0.80;;;;;;;22.94;46.88;100522.66;4952372;29;20054;-71
2021/07/29 02:51:20;;;;;;;2.33;1.13;;;;;;;22.93;46.81;100513.81;4952009;29;20043;-69
2021/07/29 02:53:46;;;;;;;2.38;0.90;;;;;;;22.92;47.23;100514.88;4951766;29;20712;-68
2021/07/29 02:56:11;;;;;;;3.30;0.90;;;;;;;22.93;47.04;100523.72;4952460;29;20097;-68
2021/07/29 02:58:37;;;;;;;1.75;0.80;;;;;;;22.92;46.83;100522.88;4952114;29;20453;-70
2021/07/29 03:01:03;;;;;;;2.78;0.80;;;;;;;22.92;46.71;100527.41;4943912;28;20036;-68
2021/07/29 03:03:29;;;;;;;1.90;0.75;;;;;;;22.91;47.15;100520.44;4950553;29;20109;-69
2021/07/29 03:05:55;;;;;;;1.88;0.95;;;;;;;22.90;47.05;100524.16;4952061;28;20424;-71
2021/07/29 03:08:20;;;;;;;2.60;0.88;;;;;;;22.91;46.88;100515.09;4951628;29;20035;-69
2021/07/29 03:10:47;;;;;;;2.05;1.10;;;;;;;22.89;47.09;100528.69;4952129;28;20480;-68
2021/07/29 03:13:13;;;;;;;2.58;1.17;;;;;;;22.91;46.82;100523.13;4950467;28;20034;-68
2021/07/29 03:15:38;;;;;;;2.40;0.77;;;;;;;22.89;47.01;100517.19;4952180;28;20058;-68
2021/07/29 03:18:04;;;;;;;1.20;0.90;;;;;;;22.89;46.81;100531.38;4934516;29;20073;-68
2021/07/29 03:20:29;;;;;;;2.80;0.90;;;;;;;22.89;47.11;100526.03;4955625;28;20038;-68
2021/07/29 03:22:55;;;;;;;2.55;0.80;;;;;;;22.88;46.72;100529.75;4966317;28;20080;-70
2021/07/29 03:25:20;;;;;;;2.53;0.70;;;;;;;22.87;46.93;100529.94;4965304;28;20043;-68
2021/07/29 03:27:46;;;;;;;1.77;0.73;;;;;;;22.87;46.72;100532.59;4960883;28;20042;-67
2021/07/29 03:30:12;;;;;;;2.17;0.70;;;;;;;22.87;46.72;100535.28;4962591;28;20411;-68
2021/07/29 03:32:37;;;;;;;1.85;0.73;;;;;;;22.86;46.72;100528.31;4950459;28;20040;-68
2021/07/29 03:35:04;;;;;;;3.80;0.98;;;;;;;22.85;46.73;100519.47;4947888;28;20404;-68
2021/07/29 03:37:29;;;;;;;2.78;0.80;;;;;;;22.86;46.64;100522.97;4965349;28;20465;-69
2021/07/29 03:39:55;;;;;;;1.92;0.80;;;;;;;22.85;46.88;100529.34;4949657;28;20085;-71
2021/07/29 03:42:22;;;;;;;2.47;0.90;;;;;;;22.85;46.63;100521.31;4964168;28;20035;-69
2021/07/29 03:44:48;;;;;;;2.80;0.70;;;;;;;22.85;46.88;100532.03;4961298;28;20042;-68
2021/07/29 03:47:14;;;;;;;2.90;1.10;;;;;;;22.85;46.84;100534.69;4951624;29;20047;-68
2021/07/29 03:49:39;;;;;;;2.25;0.90;;;;;;;22.84;46.90;100541.91;4929487;29;20428;-68
2021/07/29 03:52:05;;;;;;;2.63;0.80;;;;;;;22.84;46.59;100530.38;4950574;29;20035;-72
2021/07/29 03:54:31;;;;;;;1.13;0.77;;;;;;;22.84;46.76;100535.75;4962861;28;20106;-68
2021/07/29 03:56:57;;;;;;;2.42;0.80;;;;;;;22.83;46.59;100548.28;4967391;28;20038;-68
2021/07/29 03:59:22;;;;;;;1.67;0.95;;;;;;;22.83;46.63;100534.09;4961817;28;20039;-68
2021/07/29 04:01:48;;;;;;;2.08;0.80;;;;;;;22.83;46.52;100536.78;4941150;28;20473;-68
2021/07/29 04:04:13;;;;;;;1.92;0.75;;;;;;;22.81;46.57;100539.66;4946087;28;20166;-68
2021/07/29 04:06:38;;;;;;;2.97;0.80;;;;;;;22.82;46.67;100544.00;4964609;28;20121;-69
2021/07/29 04:09:04;;;;;;;2.00;1.08;;;;;;;22.80;46.55;100548.72;4940940;29;20410;-68
2021/07/29 04:11:29;;;;;;;2.22;0.88;;;;;;;22.82;46.49;100548.50;4962872;28;20031;-68
2021/07/29 04:13:55;;;;;;;2.30;1.00;;;;;;;22.81;46.88;100552.22;4966097;28;20043;-70
2021/07/29 04:16:20;;;;;;;2.65;0.80;;;;;;;22.81;46.62;100546.88;4951890;28;20037;-68
2021/07/29 04:18:46;;;;;;;2.10;0.77;;;;;;;22.80;46.97;100548.72;4960181;28;20039;-73
2021/07/29 04:21:15;;;;;;;3.17;0.75;;;;;;;22.79;46.86;100555.09;4962829;28;20046;-68
2021/07/29 04:23:41;;;;;;;1.35;0.88;;;;;;;22.80;46.68;100550.56;4968957;28;20141;-70
2021/07/29 04:26:07;;;;;;;2.40;0.85;;;;;;;22.80;46.78;100558.59;4969979;28;20125;-69
2021/07/29 04:28:32;;;;;;;1.80;0.80;;;;;;;22.80;46.58;100555.94;4952548;28;20097;-68
2021/07/29 04:30:57;;;;;;;1.80;0.90;;;;;;;22.79;46.64;100549.75;4934939;28;20035;-68
2021/07/29 04:33:23;;;;;;;1.80;0.70;;;;;;;22.79;46.91;100557.78;4969334;28;20385;-68
2021/07/29 04:35:48;;;;;;;3.55;0.90;;;;;;;22.79;46.71;100559.66;4969621;28;20035;-67
2021/07/29 04:38:14;;;;;;;2.67;0.90;;;;;;;22.79;46.94;100546.28;4967494;28;20046;-68
2021/07/29 04:40:39;;;;;;;2.45;0.80;;;;;;;22.78;46.71;100558.00;4967112;28;20118;-68
2021/07/29 04:43:04;;;;;;;4.22;0.82;;;;;;;22.77;46.52;100554.53;4952163;28;20042;-68
2021/07/29 04:45:30;;;;;;;1.58;0.80;;;;;;;22.78;46.68;100552.66;4958232;28;20046;-69
2021/07/29 04:47:56;;;;;;;2.88;1.08;;;;;;;22.77;46.88;100541.16;4932905;29;20031;-68
2021/07/29 04:50:22;;;;;;;3.70;1.00;;;;;;;22.76;46.72;100544.06;4945245;28;20118;-68
2021/07/29 04:52:50;;;;;;;1.95;0.82;;;;;;;22.76;46.90;100534.16;4945703;28;20039;-72
2021/07/29 04:55:16;;;;;;;2.15;0.80;;;;;;;22.77;46.62;100537.66;4951108;28;20039;-68
2021/07/29 04:57:41;;;;;;;2.08;1.10;;;;;;;22.77;46.84;100540.34;4950630;28;20595;-73
2021/07/29 05:00:08;;;;;;;2.38;0.80;;;;;;;22.76;46.93;100531.50;4932514;29;20067;-69
2021/07/29 05:02:33;;;;;;;1.88;0.77;;;;;;;22.76;46.65;100526.16;4950738;28;20058;-68
2021/07/29 05:04:59;;;;;;;2.33;0.88;;;;;;;22.75;46.83;100524.53;4950077;28;20529;-69
2021/07/29 05:07:24;;;;;;;2.20;0.90;;;;;;;22.76;46.66;100528.00;4950876;28;20504;-68
2021/07/29 05:09:50;;;;;;;3.83;1.23;;;;;;;22.75;46.81;100519.16;4948448;28;20040;-69
2021/07/29 05:12:15;;;;;;;2.45;0.80;;;;;;;22.75;46.84;100529.06;4950968;28;20035;-69
2021/07/29 05:14:40;;;;;;;1.70;0.98;;;;;;;22.74;46.59;100530.09;4950577;28;20033;-68
2021/07/29 05:17:06;;;;;;;2.30;0.73;;;;;;;22.74;46.81;100524.75;4950511;28;20122;-68
2021/07/29 05:19:31;;;;;;;4.35;1.40;;;;;;;22.73;46.50;100525.78;4941351;28;20059;-68
2021/07/29 05:21:57;;;;;;;1.50;0.90;;;;;;;22.73;46.51;100525.78;4965994;28;20178;-68
2021/07/29 05:24:23;;;;;;;2.85;1.30;;;;;;;22.71;46.62;100525.97;4970325;28;20057;-68
2021/07/29 05:26:48;;;;;;;11.30;1.40;;;;;;;22.71;46.89;100537.50;4972579;28;20042;-70
2021/07/29 05:29:14;;;;;;;2.55;0.90;;;;;;;22.70;46.47;100529.69;4973128;28;20039;-69
2021/07/29 05:31:41;;;;;;;2.97;1.00;;;;;;;22.69;46.54;100536.91;4970018;28;20035;-68
2021/07/29 05:34:11;;;;;;;2.28;0.93;;;;;;;22.68;46.61;100531.78;4956045;28;20062;-69
2021/07/29 05:36:37;;;;;;;1.83;0.80;;;;;;;22.67;46.78;100530.97;4973242;28;20395;-69
2021/07/29 05:39:06;;;;;;;1.40;0.80;;;;;;;22.66;46.84;100540.03;4971746;28;20066;-67
2021/07/29 05:41:31;;;;;;;3.80;1.10;;;;;;;22.67;46.41;100541.66;4973120;28;20057;-68
2021/07/29 05:43:57;;;;;;;3.33;1.45;;;;;;;22.67;46.82;100539.00;4972147;28;20050;-71
2021/07/29 05:46:22;;;;;;;3.95;1.00;;;;;;;22.66;46.57;100536.53;4954048;28;20035;-68
2021/07/29 05:48:48;;;;;;;2.70;0.98;;;;;;;22.66;46.41;100540.03;4953979;29;20550;-69
2021/07/29 05:51:13;;;;;;;2.90;1.00;;;;;;;22.65;46.78;100538.41;4946603;28;20226;-68
2021/07/29 05:53:38;;;;;;;2.08;0.95;;;;;;;22.65;46.59;100542.94;4953021;28;20047;-69
2021/07/29 05:56:04;;;;;;;1.52;0.77;;;;;;;22.64;46.57;100546.66;4954161;28;20039;-67
2021/07/29 05:58:29;;;;;;;5.28;1.20;;;;;;;22.64;46.56;100552.00;4955525;28;20406;-68
2021/07/29 06:00:55;;;;;;;2.45;1.10;;;;;;;22.64;46.77;100552.81;4953961;28;20066;-71
2021/07/29 06:03:20;;;;;;;3.22;1.20;;;;;;;22.63;46.82;100551.19;4956881;28;20685;-69
2021/07/29 06:05:46;;;;;;;1.95;0.82;;;;;;;22.64;46.67;100555.47;4955503;28;20492;-68
2021/07/29 06:08:12;;;;;;;4.18;1.00;;;;;;;22.63;46.29;100559.19;4956976;28;20089;-68
2021/07/29 06:10:38;;;;;;;2.85;1.00;;;;;;;22.63;46.27;100556.53;4950278;29;20044;-67
2021/07/29 06:13:04;;;;;;;2.28;0.80;;;;;;;22.64;46.67;100562.69;4938888;28;20047;-67
2021/07/29 06:15:29;;;;;;;2.63;1.05;;;;;;;22.63;46.82;100558.38;4956905;28;20031;-67
2021/07/29 06:17:57;;;;;;;1.55;0.90;;;;;;;22.64;46.65;100568.84;4955330;28;20118;-67
2021/07/29 06:20:23;;;;;;;2.55;1.00;;;;;;;22.64;46.65;100573.38;4960677;28;20077;-67
2021/07/29 06:22:48;;;;;;;3.25;1.10;;;;;;;22.64;46.33;100581.41;4971234;28;20059;-69
2021/07/29 06:25:14;;;;;;;1.95;0.93;;;;;;;22.63;46.41;100577.91;4965212;28;20504;-67
2021/07/29 06:27:40;;;;;;;3.17;1.00;;;;;;;22.64;46.51;100576.06;4972457;28;20749;-67
2021/07/29 06:30:07;;;;;;;1.83;0.90;;;;;;;22.63;46.59;100588.63;4970909;28;20108;-68
2021/07/29 06:32:32;;;;;;;2.08;0.90;;;;;;;22.63;46.54;100596.63;4953300;28;20388;-67
2021/07/29 06:34:58;;;;;;;2.25;1.15;;;;;;;22.63;46.51;100582.44;4960283;28;20042;-68
2021/07/29 06:37:23;;;;;;;2.50;1.08;;;;;;;22.62;46.35;100592.31;4944093;28;20569;-68
2021/07/29 06:39:48;;;;;;;6.05;1.15;;;;;;;22.62;46.75;100592.31;4971591;28;20034;-70
2021/07/29 06:42:14;;;;;;;4.22;1.40;;;;;;;22.61;46.77;100590.69;4971123;28;20173;-66
2021/07/29 06:44:42;;;;;;;7.07;1.10;;;;;;;22.59;46.67;100595.44;4945904;29;20071;-68
2021/07/29 06:47:18;;;;;;;5.20;1.00;;;;;;;22.56;46.69;100600.41;4944471;29;20043;-68
2021/07/29 06:49:43;;;;;;;3.50;1.48;;;;;;;22.54;46.74;100608.63;4952677;28;20736;-66
2021/07/29 06:52:11;;;;;;;4.78;1.15;;;;;;;22.51;46.67;100611.75;4951934;28;20083;-68
2021/07/29 06:54:37;;;;;;;4.93;1.20;;;;;;;22.50;46.81;100614.66;4951859;28;20034;-67
2021/07/29 06:57:02;;;;;;;4.95;1.20;;;;;;;22.48;46.64;100606.88;4934826;29;20027;-67
2021/07/29 06:59:28;;;;;;;3.28;1.10;;;;;;;22.46;46.69;100613.47;4952453;28;20039;-66
2021/07/29 07:01:53;;;;;;;3.35;0.90;;;;;;;22.45;46.95;100609.97;4951477;28;20079;-71
2021/07/29 07:04:19;;;;;;;3.25;1.05;;;;;;;22.44;46.81;100605.69;4955836;29;20033;-69
2021/07/29 07:06:44;;;;;;;1.85;0.93;;;;;;;22.44;46.96;100620.91;4956374;28;20157;-68
2021/07/29 07:09:09;;;;;;;2.97;1.20;;;;;;;22.42;47.07;100611.25;4942990;28;20036;-67
2021/07/29 07:11:35;;;;;;;5.40;1.17;;;;;;;22.42;46.96;100619.25;4961406;28;20097;-69
2021/07/29 07:14:00;;;;;;;2.08;1.00;;;;;;;22.41;47.08;100609.63;4952584;28;20047;-68
2021/07/29 07:16:26;;;;;;;3.95;1.20;;;;;;;22.41;47.40;100628.31;4953333;28;20091;-68
2021/07/29 07:18:52;;;;;;;4.63;1.17;;;;;;;22.40;47.06;100626.66;4935721;29;20039;-68
2021/07/29 07:21:17;;;;;;;4.78;1.05;;;;;;;22.40;47.10;100626.66;4964794;28;20426;-67
2021/07/29 07:23:43;;;;;;;4.95;0.90;;;;;;;22.39;47.22;100632.22;4953515;28;20126;-66
2021/07/29 07:26:21;;;;;;;5.85;1.17;;;;;;;22.37;47.39;100637.78;4940548;28;20385;-67
2021/07/29 07:28:48;;;;;;;5.68;1.10;;;;;;;22.39;47.38;100635.72;4949682;28;20119;-66
2021/07/29 07:31:14;;;;;;;4.53;1.35;;;;;;;22.40;47.26;100628.50;4958890;28;20393;-66
2021/07/29 07:33:39;;;;;;;8.13;1.20;;;;;;;22.40;47.25;100644.56;4943914;28;20038;-67
2021/07/29 07:36:05;;;;;;;8.43;1.55;;;;;;;22.40;47.25;100647.22;4952545;28;20551;-70
2021/07/29 07:38:31;;;;;;;5.65;1.30;;;;;;;22.40;47.31;100647.22;4958509;28;20111;-69
2021/07/29 07:40:56;;;;;;;4.25;1.08;;;;;;;22.40;47.38;100636.53;4959269;28;20038;-67
2021/07/29 07:43:22;;;;;;;5.68;1.20;;;;;;;22.40;47.12;100645.38;4950947;28;20053;-67
2021/07/29 07:45:49;;;;;;;8.00;1.50;;;;;;;22.40;47.31;100656.06;4944166;28;20054;-67
2021/07/29 07:48:15;;;;;;;7.22;1.60;;;;;;;22.40;47.39;100647.22;4950152;28;20816;-67
2021/07/29 07:50:41;;;;;;;11.20;2.60;;;;;;;22.41;47.28;100647.03;4951390;28;20171;-68
2021/07/29 07:53:06;;;;;;;10.18;2.67;;;;;;;22.43;47.30;100657.50;4938131;28;20547;-68
2021/07/29 07:55:34;;;;;;;17.20;3.28;;;;;;;22.42;47.30;100658.53;4950515;28;20050;-68
2021/07/29 07:57:59;;;;;;;10.75;3.55;;;;;;;22.43;47.50;100660.19;4919596;28;20577;-74
2021/07/29 08:00:25;;;;;;;8.73;2.53;;;;;;;22.42;47.26;100661.22;4948577;28;20074;-67
2021/07/29 08:02:50;;;;;;;6.15;2.40;;;;;;;22.40;47.48;100656.06;4931979;28;20150;-70
2021/07/29 08:05:16;;;;;;;9.98;2.38;;;;;;;22.39;47.14;100659.78;4952526;28;20035;-67
2021/07/29 08:07:41;;;;;;;7.35;2.30;;;;;;;22.39;47.54;100670.47;4952841;28;20533;-67
2021/07/29 08:10:07;;;;;;;7.97;2.60;;;;;;;22.38;47.49;100674.19;4952822;28;20354;-67
2021/07/29 08:12:32;;;;;;;6.38;1.90;;;;;;;22.36;47.00;100667.41;4929934;29;20516;-67
2021/07/29 08:14:58;;;;;;;8.00;2.33;;;;;;;22.35;47.06;100673.81;4917660;28;20427;-67
2021/07/29 08:17:23;;;;;;;9.00;2.17;;;;;;;22.35;47.10;100674.63;4935151;29;20494;-67
2021/07/29 08:19:49;;;;;;;6.45;1.95;;;;;;;22.34;46.88;100681.00;4952939;28;20035;-67
2021/07/29 08:22:14;;;;;;;6.68;1.92;;;;;;;22.34;47.17;100680.19;4966895;28;20050;-67
2021/07/29 08:24:39;;;;;;;4.68;1.58;;;;;;;22.34;46.77;100682.84;4958843;28;20031;-68
2021/07/29 08:27:05;;;;;;;5.57;1.60;;;;;;;22.32;47.04;100677.72;4950657;28;20109;-67
2021/07/29 08:29:31;;;;;;;4.28;1.50;;;;;;;22.32;46.66;100691.09;4969778;28;20039;-68
2021/07/29 08:32:00;;;;;;;5.35;1.70;;;;;;;22.33;46.91;100678.53;4959501;28;20039;-67
2021/07/29 08:34:26;;;;;;;4.13;1.30;;;;;;;22.33;46.71;100686.56;4949643;28;20389;-67
2021/07/29 08:36:52;;;;;;;5.05;1.25;;;;;;;22.32;46.54;100677.72;4953021;28;20039;-68
2021/07/29 08:39:17;;;;;;;5.43;1.40;;;;;;;22.32;46.81;100682.25;4952877;28;20039;-67
2021/07/29 08:41:43;;;;;;;5.88;1.25;;;;;;;22.32;46.49;100690.28;4954132;28;20035;-67
2021/07/29 08:44:08;;;;;;;12.60;2.10;;;;;;;22.31;46.70;100685.97;4933027;29;20039;-67
2021/07/29 08:46:35;;;;;;;10.50;2.42;;;;;;;22.29;46.83;100682.69;4947059;29;20037;-70
2021/07/29 08:49:02;;;;;;;7.70;1.52;;;;;;;22.28;46.81;100684.56;4948993;28;20460;-68
2021/07/29 08:51:28;;;;;;;9.77;2.00;;;;;;;22.28;46.57;100675.72;4959837;28;20480;-74
2021/07/29 08:53:54;;;;;;;3.50;1.30;;;;;;;22.28;46.83;100679.22;4947082;28;20134;-67
2021/07/29 08:56:28;;;;;;;4.43;1.63;;;;;;;22.29;46.90;100678.16;4958915;28;20042;-68
2021/07/29 08:58:53;;;;;;;6.70;1.65;;;;;;;22.29;46.63;100688.03;4957253;28;20119;-67
2021/07/29 09:01:19;;;;;;;4.78;1.20;;;;;;;22.28;46.77;100683.75;4954483;28;20126;-69
2021/07/29 09:03:45;;;;;;;5.13;1.30;;;;;;;22.28;46.59;100670.38;4962515;28;20035;-67
2021/07/29 09:06:12;;;;;;;3.80;1.20;;;;;;;22.28;46.74;100676.53;4960223;28;20115;-69
2021/07/29 09:08:54;;;;;;;3.45;1.20;;;;;;;22.26;46.37;100683.13;4962864;28;20631;-67
2021/07/29 09:11:29;;;;;;;4.15;1.35;;;;;;;22.26;46.38;100691.97;4960322;28;20461;-67
2021/07/29 09:14:02;;;;;;;3.90;1.10;;;;;;;22.27;46.17;100696.28;4962562;28;20038;-68
2021/07/29 09:16:28;;;;;;;3.47;1.10;;;;;;;22.29;46.32;100686.19;4960746;28;20039;-67
2021/07/29 09:18:53;;;;;;;5.40;1.10;;;;;;;22.28;46.39;100692.56;4963136;28;20046;-67
2021/07/29 09:21:19;;;;;;;3.10;1.00;;;;;;;22.28;46.51;100683.75;4950076;28;20050;-68
2021/07/29 09:23:44;;;;;;;3.55;1.23;;;;;;;22.28;46.43;100684.56;4971411;28;20053;-69
2021/07/29 09:26:09;;;;;;;4.07;1.20;;;;;;;22.28;46.24;100691.75;4973810;28;20034;-68
2021/07/29 09:28:37;;;;;;;5.82;1.33;;;;;;;22.28;46.12;100697.09;4972276;28;20092;-68
2021/07/29 09:31:14;;;;;;;2.53;0.80;;;;;;;22.24;45.89;100691.34;4973249;28;20532;-67
2021/07/29 09:33:57;;;;;;;3.35;1.17;;;;;;;22.25;45.95;100694.84;4955185;28;20475;-67
2021/07/29 09:36:22;;;;;;;2.85;1.58;;;;;;;22.27;46.24;100693.59;4973256;28;20031;-68
2021/07/29 09:38:48;;;;;;;4.28;1.20;;;;;;;22.28;45.93;100691.75;4971647;28;20035;-67
2021/07/29 09:41:25;;;;;;;3.78;1.20;;;;;;;22.26;46.27;100691.16;4973036;28;20041;-67
2021/07/29 09:43:51;;;;;;;5.40;1.02;;;;;;;22.27;46.29;100685.59;4972239;28;20031;-69
2021/07/29 09:46:20;;;;;;;3.60;1.20;;;;;;;22.27;46.23;100679.44;4954977;28;20159;-67
2021/07/29 09:48:47;;;;;;;4.10;1.10;;;;;;;22.27;46.10;100676.75;4953982;28;20469;-70
2021/07/29 09:51:14;;;;;;;2.72;1.00;;;;;;;22.26;45.65;100689.31;4953267;28;20122;-69
2021/07/29 09:53:41;;;;;;;3.80;1.00;;;;;;;22.26;45.74;100680.47;4952874;28;20354;-68
2021/07/29 09:56:07;;;;;;;4.13;1.20;;;;;;;22.26;46.01;100683.97;4953512;28;20038;-67
2021/07/29 09:58:34;;;;;;;2.85;0.93;;;;;;;22.26;45.72;100693.81;4953186;28;20043;-67
2021/07/29 10:01:01;;;;;;;4.50;1.30;;;;;;;22.26;46.04;100683.13;4946206;28;20059;-67
2021/07/29 10:03:27;;;;;;;2.80;0.98;;;;;;;22.25;45.59;100686.81;4952991;28;20038;-67
2021/07/29 10:06:06;;;;;;;3.50;1.33;;;;;;;22.24;45.79;100687.84;4953724;28;20102;-67
2021/07/29 10:08:36;;;;;;;5.07;1.10;;;;;;;22.26;45.59;100683.13;4952206;28;20031;-68
2021/07/29 10:11:09;;;;;;;2.38;1.10;;;;;;;22.25;45.77;100687.66;4953064;28;20110;-69
2021/07/29 10:13:39;;;;;;;4.50;1.33;;;;;;;22.25;46.02;100689.50;4952907;28;20128;-67
2021/07/29 10:16:06;;;;;;;3.15;1.20;;;;;;;22.26;45.85;100691.97;4953662;28;20053;-67
2021/07/29 10:18:50;;;;;;;2.78;0.90;;;;;;;22.22;45.96;100688.06;4952617;28;20037;-68
2021/07/29 10:21:29;;;;;;;3.22;1.30;;;;;;;22.23;45.95;100687.03;4965473;28;20097;-70
2021/07/29 10:24:03;;;;;;;4.47;0.98;;;;;;;22.25;46.03;100686.81;4946492;28;20564;-68
2021/07/29 10:27:03;;;;;;;4.47;1.15;;;;;;;22.23;46.03;100687.03;4971505;28;20446;-67
2021/07/29 10:29:30;;;;;;;3.78;1.17;;;;;;;22.27;45.92;100700.81;4967251;28;20046;-67
2021/07/29 10:31:58;;;;;;;2.85;1.20;;;;;;;22.26;45.55;100697.31;4971474;28;20042;-70
2021/07/29 10:34:32;;;;;;;4.82;1.10;;;;;;;22.25;45.54;100692.16;4971697;28;20035;-67
2021/07/29 10:37:05;;;;;;;4.95;1.20;;;;;;;22.25;45.88;100694.84;4971003;28;20043;-67
2021/07/29 10:39:32;;;;;;;3.83;1.00;;;;;;;22.27;45.57;100692.78;4971002;28;20043;-67
2021/07/29 10:42:01;;;;;;;4.47;1.20;;;;;;;22.28;45.78;100683.75;4971172;28;20138;-67
2021/07/29 10:44:34;;;;;;;3.75;1.20;;;;;;;22.26;45.39;100680.47;4968030;28;20035;-67
2021/07/29 10:47:01;;;;;;;2.10;0.90;;;;;;;22.28;45.80;100691.75;4952658;28;20042;-68
2021/07/29 10:49:45;;;;;;;3.30;0.90;;;;;;;22.24;45.40;100699.38;4951818;28;20181;-67
2021/07/29 10:52:14;;;;;;;6.13;1.20;;;;;;;22.27;45.57;100687.44;4952569;28;20031;-68
2021/07/29 10:54:42;;;;;;;5.00;1.15;;;;;;;22.28;45.58;100691.75;4951347;28;20039;-67
2021/07/29 10:57:11;;;;;;;4.03;1.17;;;;;;;22.28;45.19;100684.56;4953035;29;20050;-67
2021/07/29 10:59:37;;;;;;;2.90;1.00;;;;;;;22.28;45.37;100676.53;4951912;28;20031;-68
2021/07/29 11:02:17;;;;;;;2.63;1.00;;;;;;;22.29;45.27;100685.38;4945291;28;20054;-67
2021/07/29 11:04:53;;;;;;;3.58;0.98;;;;;;;22.25;45.34;100676.13;4952059;28;20067;-67
2021/07/29 11:07:22;;;;;;;3.78;1.10;;;;;;;22.27;45.53;100684.78;4952233;29;20051;-67
2021/07/29 11:09:47;;;;;;;3.85;0.80;;;;;;;22.26;45.41;100678.63;4951332;28;20051;-68
2021/07/29 11:12:14;;;;;;;3.22;1.10;;;;;;;22.27;45.25;100687.44;4952233;28;20050;-67
2021/07/29 11:14:40;;;;;;;6.25;1.20;;;;;;;22.27;45.20;100682.09;4951894;28;20090;-68
2021/07/29 11:17:05;;;;;;;2.40;1.05;;;;;;;22.27;45.25;100685.59;4952498;28;20818;-67
2021/07/29 11:19:44;;;;;;;3.97;1.20;;;;;;;22.25;45.05;100676.13;4951719;29;20104;-68
2021/07/29 11:22:11;;;;;;;3.22;0.95;;;;;;;22.28;45.38;100683.75;4943998;28;20054;-67
2021/07/29 11:24:37;;;;;;;4.18;1.35;;;;;;;22.27;45.28;100685.59;4970092;28;20043;-67